sensor_id;sensor_type;location;lat;lon;timestamp;pressure;altitude;pressure_sealevel;temperature;humidity
37778;BME280;23615;51.506;7.678;2023-04-06T00:00:45;100234.13;;;2.88;78.08
37778;BME280;23615;51.506;7.678;2023-04-06T00:03:10;100243.50;;;2.82;78.21
37778;BME280;23615;51.506;7.678;2023-04-06T00:05:35;100236.13;;;2.78;78.75
37778;BME280;23615;51.506;7.678;2023-04-06T00:08:01;100236.13;;;2.78;78.67
37778;BME280;23615;51.506;7.678;2023-04-06T00:10:26;100237.09;;;2.77;78.54
37778;BME280;23615;51.506;7.678;2023-04-06T00:12:52;100237.44;;;2.74;78.60
37778;BME280;23615;51.506;7.678;2023-04-06T00:15:17;100236.13;;;2.70;78.99
37778;BME280;23615;51.506;7.678;2023-04-06T00:17:43;100237.28;;;2.67;79.40
37778;BME280;23615;51.506;7.678;2023-04-06T00:20:08;100238.28;;;2.66;79.34
37778;BME280;23615;51.506;7.678;2023-04-06T00:22:34;100241.25;;;2.63;79.33
37778;BME280;23615;51.506;7.678;2023-04-06T00:24:59;100228.25;;;2.61;79.45
37778;BME280;23615;51.506;7.678;2023-04-06T00:27:25;100235.34;;;2.61;79.07
37778;BME280;23615;51.506;7.678;2023-04-06T00:29:50;100224.66;;;2.54;79.86
37778;BME280;23615;51.506;7.678;2023-04-06T00:32:15;100221.34;;;2.52;79.80
37778;BME280;23615;51.506;7.678;2023-04-06T00:34:41;100219.72;;;2.51;79.73
37778;BME280;23615;51.506;7.678;2023-04-06T00:37:06;100216.41;;;2.49;79.63
37778;BME280;23615;51.506;7.678;2023-04-06T00:39:31;100217.41;;;2.48;79.71
37778;BME280;23615;51.506;7.678;2023-04-06T00:41:56;100209.66;;;2.47;79.77
37778;BME280;23615;51.506;7.678;2023-04-06T00:44:22;100206.41;;;2.45;79.70
37778;BME280;23615;51.506;7.678;2023-04-06T00:46:47;100210.84;;;2.44;79.69
37778;BME280;23615;51.506;7.678;2023-04-06T00:49:13;100204.59;;;2.45;nan
37778;BME280;23615;51.506;7.678;2023-04-06T00:51:38;100203.91;;;2.43;79.89
37778;BME280;23615;51.506;7.678;2023-04-06T00:54:04;100197.00;;;2.42;79.66
37778;BME280;23615;51.506;7.678;2023-04-06T00:56:29;100195.50;;;2.48;80.05
37778;BME280;23615;51.506;7.678;2023-04-06T00:58:55;100188.59;;;2.39;79.73
37778;BME280;23615;51.506;7.678;2023-04-06T01:01:20;100186.97;;;2.38;79.93
37778;BME280;23615;51.506;7.678;2023-04-06T01:03:46;100183.03;;;2.34;79.36
37778;BME280;23615;51.506;7.678;2023-04-06T01:06:14;100181.72;;;2.30;80.03
37778;BME280;23615;51.506;7.678;2023-04-06T01:08:39;100181.38;;;2.33;79.83
37778;BME280;23615;51.506;7.678;2023-04-06T01:11:04;100186.16;;;2.29;79.67
37778;BME280;23615;51.506;7.678;2023-04-06T01:13:30;100177.63;;;2.27;80.15
37778;BME280;23615;51.506;7.678;2023-04-06T01:15:55;100177.63;;;2.27;80.10
37778;BME280;23615;51.506;7.678;2023-04-06T01:18:28;100174.50;;;2.23;80.13
37778;BME280;23615;51.506;7.678;2023-04-06T01:20:53;100168.25;;;2.24;79.91
37778;BME280;23615;51.506;7.678;2023-04-06T01:23:19;100162.47;;;2.21;79.81
37778;BME280;23615;51.506;7.678;2023-04-06T01:25:44;100170.22;;;2.22;80.02
37778;BME280;23615;51.506;7.678;2023-04-06T01:28:09;100164.28;;;2.20;80.16
37778;BME280;23615;51.506;7.678;2023-04-06T01:30:35;100163.13;;;2.23;80.63
37778;BME280;23615;51.506;7.678;2023-04-06T01:33:00;100151.63;;;2.24;79.83
37778;BME280;23615;51.506;7.678;2023-04-06T01:35:26;100160.81;;;2.20;79.98
37778;BME280;23615;51.506;7.678;2023-04-06T01:37:52;100153.13;;;2.18;79.82
37778;BME280;23615;51.506;7.678;2023-04-06T01:40:17;100154.75;;;2.19;80.03
37778;BME280;23615;51.506;7.678;2023-04-06T01:42:43;100144.22;;;2.19;nan
37778;BME280;23615;51.506;7.678;2023-04-06T01:45:08;100143.38;;;2.19;79.31
37778;BME280;23615;51.506;7.678;2023-04-06T01:47:34;100146.03;;;2.19;79.43
37778;BME280;23615;51.506;7.678;2023-04-06T01:49:59;100138.47;;;2.16;79.56
37778;BME280;23615;51.506;7.678;2023-04-06T01:52:24;100142.09;;;2.15;79.53
37778;BME280;23615;51.506;7.678;2023-04-06T01:54:49;100143.75;;;2.16;79.61
37778;BME280;23615;51.506;7.678;2023-04-06T01:57:15;100139.78;;;2.20;79.31
37778;BME280;23615;51.506;7.678;2023-04-06T01:59:40;100142.59;;;2.18;78.92
37778;BME280;23615;51.506;7.678;2023-04-06T02:02:05;100142.09;;;2.15;79.20
37778;BME280;23615;51.506;7.678;2023-04-06T02:04:31;100139.63;;;2.13;79.25
37778;BME280;23615;51.506;7.678;2023-04-06T02:06:56;100136.69;;;2.08;79.17
37778;BME280;23615;51.506;7.678;2023-04-06T02:09:21;100129.41;;;2.10;78.87
37778;BME280;23615;51.506;7.678;2023-04-06T02:11:46;100138.50;;;2.08;79.09
37778;BME280;23615;51.506;7.678;2023-04-06T02:14:12;100137.81;;;2.06;79.18
37778;BME280;23615;51.506;7.678;2023-04-06T02:16:37;100138.81;;;2.05;79.31
37778;BME280;23615;51.506;7.678;2023-04-06T02:19:02;100136.19;;;2.05;79.15
37778;BME280;23615;51.506;7.678;2023-04-06T02:21:28;100141.59;;;2.03;79.09
37778;BME280;23615;51.506;7.678;2023-04-06T02:23:53;100134.69;;;2.02;79.35
37778;BME280;23615;51.506;7.678;2023-04-06T02:26:19;100128.81;;;2.00;78.96
37778;BME280;23615;51.506;7.678;2023-04-06T02:28:45;100134.69;;;2.02;79.51
37778;BME280;23615;51.506;7.678;2023-04-06T02:31:10;100138.31;;;2.01;79.30
37778;BME280;23615;51.506;7.678;2023-04-06T02:33:36;100125.16;;;2.01;79.00
37778;BME280;23615;51.506;7.678;2023-04-06T02:36:02;100138.97;;;2.03;79.29
37778;BME280;23615;51.506;7.678;2023-04-06T02:38:27;100132.88;;;2.03;79.19
37778;BME280;23615;51.506;7.678;2023-04-06T02:40:52;100132.06;;;2.02;78.76
37778;BME280;23615;51.506;7.678;2023-04-06T02:43:18;100133.88;;;2.02;79.23
37778;BME280;23615;51.506;7.678;2023-04-06T02:45:44;100132.88;;;2.03;78.77
37778;BME280;23615;51.506;7.678;2023-04-06T02:48:09;100140.94;;;2.01;78.72
37778;BME280;23615;51.506;7.678;2023-04-06T02:50:35;100131.44;;;2.00;78.71
37778;BME280;23615;51.506;7.678;2023-04-06T02:53:00;100126.16;;;2.00;78.61
37778;BME280;23615;51.506;7.678;2023-04-06T02:55:25;100127.97;;;2.00;78.66
37778;BME280;23615;51.506;7.678;2023-04-06T02:57:51;100130.09;;;1.96;78.59
37778;BME280;23615;51.506;7.678;2023-04-06T03:00:16;100133.88;;;1.94;78.70
37778;BME280;23615;51.506;7.678;2023-04-06T03:02:42;100126.16;;;1.92;78.85
37778;BME280;23615;51.506;7.678;2023-04-06T03:05:07;100128.97;;;1.91;79.26
37778;BME280;23615;51.506;7.678;2023-04-06T03:07:32;100128.13;;;1.90;78.87
37778;BME280;23615;51.506;7.678;2023-04-06T03:09:58;100122.06;;;1.90;79.39
37778;BME280;23615;51.506;7.678;2023-04-06T03:12:23;100125.00;;;1.86;79.13
37778;BME280;23615;51.506;7.678;2023-04-06T03:14:48;100128.47;;;1.87;79.21
37778;BME280;23615;51.506;7.678;2023-04-06T03:17:13;100128.78;;;1.84;79.17
37778;BME280;23615;51.506;7.678;2023-04-06T03:19:39;100130.44;;;1.85;79.39
37778;BME280;23615;51.506;7.678;2023-04-06T03:22:05;100127.31;;;1.81;79.28
37778;BME280;23615;51.506;7.678;2023-04-06T03:24:30;100129.13;;;1.81;79.19
37778;BME280;23615;51.506;7.678;2023-04-06T03:26:56;100114.16;;;1.81;79.47
37778;BME280;23615;51.506;7.678;2023-04-06T03:29:21;100124.34;;;1.76;79.64
37778;BME280;23615;51.506;7.678;2023-04-06T03:31:46;100118.94;;;1.78;79.47
37778;BME280;23615;51.506;7.678;2023-04-06T03:34:12;100120.91;;;1.76;79.37
37778;BME280;23615;51.506;7.678;2023-04-06T03:36:37;100127.28;;;1.73;79.35
37778;BME280;23615;51.506;7.678;2023-04-06T03:39:03;100126.50;;;1.73;79.47
37778;BME280;23615;51.506;7.678;2023-04-06T03:41:28;100124.03;;;1.71;79.37
37778;BME280;23615;51.506;7.678;2023-04-06T03:43:53;100124.03;;;1.71;79.54
37778;BME280;23615;51.506;7.678;2023-04-06T03:46:18;100121.56;;;1.70;79.65
37778;BME280;23615;51.506;7.678;2023-04-06T03:48:45;100122.22;;;1.72;80.01
37778;BME280;23615;51.506;7.678;2023-04-06T03:51:10;100121.56;;;1.70;79.43
37778;BME280;23615;51.506;7.678;2023-04-06T03:53:35;100126.66;;;1.71;79.37
37778;BME280;23615;51.506;7.678;2023-04-06T03:56:02;100126.66;;;1.71;79.53
37778;BME280;23615;51.506;7.678;2023-04-06T03:58:27;100124.03;;;1.71;79.58
37778;BME280;23615;51.506;7.678;2023-04-06T04:00:52;100126.00;;;1.69;79.72
37778;BME280;23615;51.506;7.678;2023-04-06T04:03:18;100124.84;;;1.72;79.40
37778;BME280;23615;51.506;7.678;2023-04-06T04:05:43;100133.06;;;1.69;79.12
37778;BME280;23615;51.506;7.678;2023-04-06T04:08:08;100126.16;;;1.68;79.37
37778;BME280;23615;51.506;7.678;2023-04-06T04:10:34;100125.34;;;1.67;79.66
37778;BME280;23615;51.506;7.678;2023-04-06T04:12:59;100124.03;;;1.96;81.92
37778;BME280;23615;51.506;7.678;2023-04-06T04:15:24;100132.56;;;2.06;81.10
37778;BME280;23615;51.506;7.678;2023-04-06T04:17:50;100127.16;;;1.99;80.23
37778;BME280;23615;51.506;7.678;2023-04-06T04:20:16;100131.91;;;1.96;79.93
37778;BME280;23615;51.506;7.678;2023-04-06T04:22:41;100131.91;;;1.87;79.58
37778;BME280;23615;51.506;7.678;2023-04-06T04:25:07;100125.69;;;1.80;79.76
37778;BME280;23615;51.506;7.678;2023-04-06T04:27:32;100122.69;;;1.75;79.19
37778;BME280;23615;51.506;7.678;2023-04-06T04:29:58;100128.31;;;1.72;79.17
37778;BME280;23615;51.506;7.678;2023-04-06T04:32:23;100125.16;;;1.69;79.27
37778;BME280;23615;51.506;7.678;2023-04-06T04:34:52;100116.63;;;1.67;78.69
37778;BME280;23615;51.506;7.678;2023-04-06T04:37:17;100115.63;;;1.68;78.80
37778;BME280;23615;51.506;7.678;2023-04-06T04:39:43;100122.69;;;1.67;78.82
37778;BME280;23615;51.506;7.678;2023-04-06T04:42:08;100120.22;;;1.66;78.45
37778;BME280;23615;51.506;7.678;2023-04-06T04:44:33;100113.16;;;1.66;78.15
37778;BME280;23615;51.506;7.678;2023-04-06T04:46:59;100121.41;;;1.63;78.28
37778;BME280;23615;51.506;7.678;2023-04-06T04:49:24;100116.78;;;1.65;78.43
37778;BME280;23615;51.506;7.678;2023-04-06T04:51:50;100118.94;;;1.62;78.07
37778;BME280;23615;51.506;7.678;2023-04-06T04:54:17;100122.69;;;1.59;78.16
37778;BME280;23615;51.506;7.678;2023-04-06T04:56:42;100120.06;;;1.59;78.30
37778;BME280;23615;51.506;7.678;2023-04-06T04:59:08;100126.16;;;1.60;78.35
37778;BME280;23615;51.506;7.678;2023-04-06T05:01:33;100112.19;;;1.59;77.99
37778;BME280;23615;51.506;7.678;2023-04-06T05:03:59;100121.72;;;1.60;78.00
37778;BME280;23615;51.506;7.678;2023-04-06T05:06:24;100123.38;;;1.61;77.94
37778;BME280;23615;51.506;7.678;2023-04-06T05:08:50;100112.03;;;1.61;77.62
37778;BME280;23615;51.506;7.678;2023-04-06T05:11:15;100116.16;;;1.63;77.69
37778;BME280;23615;51.506;7.678;2023-04-06T05:13:41;100116.97;;;1.64;77.88
37778;BME280;23615;51.506;7.678;2023-04-06T05:16:06;100109.06;;;1.64;77.77
37778;BME280;23615;51.506;7.678;2023-04-06T05:18:32;100113.50;;;1.79;78.22
37778;BME280;23615;51.506;7.678;2023-04-06T05:20:57;100109.56;;;2.00;80.39
37778;BME280;23615;51.506;7.678;2023-04-06T05:23:22;100123.34;;;2.02;79.86
37778;BME280;23615;51.506;7.678;2023-04-06T05:25:47;100120.25;;;1.98;79.32
37778;BME280;23615;51.506;7.678;2023-04-06T05:28:13;100121.72;;;1.93;79.13
37778;BME280;23615;51.506;7.678;2023-04-06T05:30:40;100114.31;;;1.88;78.69
37778;BME280;23615;51.506;7.678;2023-04-06T05:33:05;100118.91;;;1.86;78.74
37778;BME280;23615;51.506;7.678;2023-04-06T05:35:31;100108.72;;;1.83;78.85
37778;BME280;23615;51.506;7.678;2023-04-06T05:37:56;100115.78;;;1.82;78.62
37778;BME280;23615;51.506;7.678;2023-04-06T05:40:21;100111.03;;;1.86;78.61
37778;BME280;23615;51.506;7.678;2023-04-06T05:42:47;100111.03;;;1.86;79.35
37778;BME280;23615;51.506;7.678;2023-04-06T05:45:12;100121.06;;;1.91;79.12
37778;BME280;23615;51.506;7.678;2023-04-06T05:47:42;100114.00;;;1.91;78.93
37778;BME280;23615;51.506;7.678;2023-04-06T05:50:09;100118.75;;;1.96;78.81
37778;BME280;23615;51.506;7.678;2023-04-06T05:52:35;100118.28;;;2.00;79.17
37778;BME280;23615;51.506;7.678;2023-04-06T05:55:00;100118.44;;;1.99;78.91
37778;BME280;23615;51.506;7.678;2023-04-06T05:57:25;100116.28;;;2.02;78.52
37778;BME280;23615;51.506;7.678;2023-04-06T05:59:51;100122.84;;;2.06;79.06
37778;BME280;23615;51.506;7.678;2023-04-06T06:02:16;100116.91;;;2.12;79.11
37778;BME280;23615;51.506;7.678;2023-04-06T06:04:41;100123.34;;;2.18;78.36
37778;BME280;23615;51.506;7.678;2023-04-06T06:07:07;100121.34;;;2.20;78.10
37778;BME280;23615;51.506;7.678;2023-04-06T06:09:32;100119.06;;;2.25;77.94
37778;BME280;23615;51.506;7.678;2023-04-06T06:11:57;100116.25;;;2.27;78.00
37778;BME280;23615;51.506;7.678;2023-04-06T06:14:23;100117.72;;;2.29;77.66
37778;BME280;23615;51.506;7.678;2023-04-06T06:16:48;100109.31;;;2.34;77.51
37778;BME280;23615;51.506;7.678;2023-04-06T06:19:13;100114.91;;;2.39;77.74
37778;BME280;23615;51.506;7.678;2023-04-06T06:21:39;100123.94;;;2.44;77.81
37778;BME280;23615;51.506;7.678;2023-04-06T06:24:05;100115.53;;;2.49;77.68
37778;BME280;23615;51.506;7.678;2023-04-06T06:26:30;100111.41;;;2.54;76.98
37778;BME280;23615;51.506;7.678;2023-04-06T06:28:56;100116.00;;;2.60;77.07
37778;BME280;23615;51.506;7.678;2023-04-06T06:31:21;100110.41;;;2.63;76.78
37778;BME280;23615;51.506;7.678;2023-04-06T06:33:50;100117.59;;;2.70;76.96
37778;BME280;23615;51.506;7.678;2023-04-06T06:36:19;100115.28;;;2.75;76.95
37778;BME280;23615;51.506;7.678;2023-04-06T06:38:45;100120.03;;;2.79;76.53
37778;BME280;23615;51.506;7.678;2023-04-06T06:41:10;100126.44;;;2.85;76.82
37778;BME280;23615;51.506;7.678;2023-04-06T06:43:36;100124.75;;;2.92;76.88
37778;BME280;23615;51.506;7.678;2023-04-06T06:46:02;100124.06;;;2.98;76.75
37778;BME280;23615;51.506;7.678;2023-04-06T06:48:27;100123.38;;;3.04;76.74
37778;BME280;23615;51.506;7.678;2023-04-06T06:50:52;100119.06;;;3.11;76.99
37778;BME280;23615;51.506;7.678;2023-04-06T06:53:19;100118.38;;;3.17;77.19
37778;BME280;23615;51.506;7.678;2023-04-06T06:55:44;100118.50;;;3.24;76.96
37778;BME280;23615;51.506;7.678;2023-04-06T06:58:10;100118.44;;;3.32;77.35
37778;BME280;23615;51.506;7.678;2023-04-06T07:00:35;100112.28;;;3.39;77.45
37778;BME280;23615;51.506;7.678;2023-04-06T07:03:01;100111.13;;;3.42;77.80
37778;BME280;23615;51.506;7.678;2023-04-06T07:05:26;100112.06;;;3.49;77.93
37778;BME280;23615;51.506;7.678;2023-04-06T07:07:52;100108.28;;;3.52;77.44
37778;BME280;23615;51.506;7.678;2023-04-06T07:10:17;100116.28;;;3.58;77.56
37778;BME280;23615;51.506;7.678;2023-04-06T07:12:42;100106.06;;;3.63;77.77
37778;BME280;23615;51.506;7.678;2023-04-06T07:15:08;100114.25;;;3.68;77.43
37778;BME280;23615;51.506;7.678;2023-04-06T07:17:33;100107.81;;;3.71;77.36
37778;BME280;23615;51.506;7.678;2023-04-06T07:19:59;100108.06;;;3.76;76.97
37778;BME280;23615;51.506;7.678;2023-04-06T07:22:24;100099.56;;;3.89;76.94
37778;BME280;23615;51.506;7.678;2023-04-06T07:24:50;100101.81;;;3.92;77.01
37778;BME280;23615;51.506;7.678;2023-04-06T07:27:15;100100.75;;;4.01;77.37
37778;BME280;23615;51.506;7.678;2023-04-06T07:29:41;100098.41;;;4.06;77.33
37778;BME280;23615;51.506;7.678;2023-04-06T07:32:08;100097.03;;;4.10;76.83
37778;BME280;23615;51.506;7.678;2023-04-06T07:34:33;100101.16;;;4.12;76.71
37778;BME280;23615;51.506;7.678;2023-04-06T07:36:59;100099.41;;;4.20;76.27
37778;BME280;23615;51.506;7.678;2023-04-06T07:39:25;100095.69;;;4.29;75.81
37778;BME280;23615;51.506;7.678;2023-04-06T07:41:52;100095.25;;;4.40;75.03
37778;BME280;23615;51.506;7.678;2023-04-06T07:44:17;100088.06;;;4.48;75.14
37778;BME280;23615;51.506;7.678;2023-04-06T07:46:42;100095.44;;;4.53;74.23
37778;BME280;23615;51.506;7.678;2023-04-06T07:49:08;100093.53;;;4.62;74.17
37778;BME280;23615;51.506;7.678;2023-04-06T07:51:36;100092.44;;;4.71;75.03
37778;BME280;23615;51.506;7.678;2023-04-06T07:54:02;100085.22;;;4.79;74.76
37778;BME280;23615;51.506;7.678;2023-04-06T07:56:27;100084.28;;;4.87;74.73
37778;BME280;23615;51.506;7.678;2023-04-06T07:58:52;100084.81;;;4.97;74.41
37778;BME280;23615;51.506;7.678;2023-04-06T08:01:20;100088.22;;;5.27;73.68
37778;BME280;23615;51.506;7.678;2023-04-06T08:03:46;100089.84;;;5.28;73.11
37778;BME280;23615;51.506;7.678;2023-04-06T08:06:11;100090.75;;;5.35;73.38
37778;BME280;23615;51.506;7.678;2023-04-06T08:08:36;100090.81;;;5.42;73.54
37778;BME280;23615;51.506;7.678;2023-04-06T08:11:02;100082.72;;;5.50;73.63
37778;BME280;23615;51.506;7.678;2023-04-06T08:13:28;100078.59;;;5.62;74.51
37778;BME280;23615;51.506;7.678;2023-04-06T08:15:53;100077.44;;;5.71;73.17
37778;BME280;23615;51.506;7.678;2023-04-06T08:18:18;100089.13;;;5.83;72.50
37778;BME280;23615;51.506;7.678;2023-04-06T08:20:44;100086.81;;;5.95;73.18
37778;BME280;23615;51.506;7.678;2023-04-06T08:23:09;100094.00;;;6.01;73.08
37778;BME280;23615;51.506;7.678;2023-04-06T08:25:36;100092.84;;;6.10;73.04
37778;BME280;23615;51.506;7.678;2023-04-06T08:28:02;100087.59;;;6.17;72.87
37778;BME280;23615;51.506;7.678;2023-04-06T08:30:27;100090.66;;;6.20;72.07
37778;BME280;23615;51.506;7.678;2023-04-06T08:32:52;100091.16;;;6.30;72.11
37778;BME280;23615;51.506;7.678;2023-04-06T08:35:18;100096.53;;;6.44;72.09
37778;BME280;23615;51.506;7.678;2023-04-06T08:37:44;100092.31;;;6.56;70.88
37778;BME280;23615;51.506;7.678;2023-04-06T08:40:11;100086.28;;;6.68;70.10
37778;BME280;23615;51.506;7.678;2023-04-06T08:42:40;100088.19;;;6.81;70.75
37778;BME280;23615;51.506;7.678;2023-04-06T08:45:09;100090.47;;;6.97;72.06
37778;BME280;23615;51.506;7.678;2023-04-06T08:47:36;100085.66;;;7.21;70.16
37778;BME280;23615;51.506;7.678;2023-04-06T08:50:04;100086.91;;;7.25;68.63
37778;BME280;23615;51.506;7.678;2023-04-06T08:52:31;100086.28;;;7.23;68.07
37778;BME280;23615;51.506;7.678;2023-04-06T08:54:57;100083.44;;;7.31;66.96
37778;BME280;23615;51.506;7.678;2023-04-06T08:57:22;100081.22;;;7.34;68.63
37778;BME280;23615;51.506;7.678;2023-04-06T08:59:49;100074.88;;;7.48;68.92
37778;BME280;23615;51.506;7.678;2023-04-06T09:02:17;100085.72;;;7.47;67.78
37778;BME280;23615;51.506;7.678;2023-04-06T09:04:45;100081.25;;;7.67;69.46
37778;BME280;23615;51.506;7.678;2023-04-06T09:07:11;100078.19;;;7.77;69.06
37778;BME280;23615;51.506;7.678;2023-04-06T09:09:36;100083.28;;;7.85;66.90
37778;BME280;23615;51.506;7.678;2023-04-06T09:12:02;100076.78;;;8.01;66.40
37778;BME280;23615;51.506;7.678;2023-04-06T09:14:37;100070.22;;;8.16;63.89
37778;BME280;23615;51.506;7.678;2023-04-06T09:17:03;100071.44;;;8.27;62.40
37778;BME280;23615;51.506;7.678;2023-04-06T09:19:29;100072.44;;;8.19;64.42
37778;BME280;23615;51.506;7.678;2023-04-06T09:22:04;100067.53;;;8.23;66.52
37778;BME280;23615;51.506;7.678;2023-04-06T09:24:40;100061.81;;;8.46;63.13
37778;BME280;23615;51.506;7.678;2023-04-06T09:27:05;100059.75;;;8.41;62.75
37778;BME280;23615;51.506;7.678;2023-04-06T09:29:30;100068.13;;;8.51;63.31
37778;BME280;23615;51.506;7.678;2023-04-06T09:32:06;100056.78;;;8.76;61.30
37778;BME280;23615;51.506;7.678;2023-04-06T09:34:33;100060.91;;;8.65;63.16
37778;BME280;23615;51.506;7.678;2023-04-06T09:36:58;100064.38;;;8.66;62.91
37778;BME280;23615;51.506;7.678;2023-04-06T09:39:24;100063.56;;;8.72;62.18
37778;BME280;23615;51.506;7.678;2023-04-06T09:41:53;100068.41;;;8.88;61.09
37778;BME280;23615;51.506;7.678;2023-04-06T09:44:19;100051.38;;;8.95;61.43
37778;BME280;23615;51.506;7.678;2023-04-06T09:46:46;100055.81;;;9.08;65.01
37778;BME280;23615;51.506;7.678;2023-04-06T09:49:12;100054.09;;;9.20;64.65
37778;BME280;23615;51.506;7.678;2023-04-06T09:51:40;100046.25;;;9.32;64.53
37778;BME280;23615;51.506;7.678;2023-04-06T09:54:07;100053.16;;;9.46;65.24
37778;BME280;23615;51.506;7.678;2023-04-06T09:59:42;100044.94;;;9.97;61.77
37778;BME280;23615;51.506;7.678;2023-04-06T10:02:18;100038.50;;;10.05;59.93
37778;BME280;23615;51.506;7.678;2023-04-06T10:04:55;100037.47;;;10.31;59.10
37778;BME280;23615;51.506;7.678;2023-04-06T10:07:22;100036.81;;;10.35;59.19
37778;BME280;23615;51.506;7.678;2023-04-06T10:09:48;100046.28;;;10.49;58.96
37778;BME280;23615;51.506;7.678;2023-04-06T10:12:14;100032.44;;;10.59;56.17
37778;BME280;23615;51.506;7.678;2023-04-06T10:14:40;100037.41;;;10.56;54.21
37778;BME280;23615;51.506;7.678;2023-04-06T10:17:32;100040.59;;;10.64;54.08
37778;BME280;23615;51.506;7.678;2023-04-06T10:20:09;100040.47;;;10.89;51.53
37778;BME280;23615;51.506;7.678;2023-04-06T10:22:51;100037.00;;;10.88;52.20
37778;BME280;23615;51.506;7.678;2023-04-06T10:25:31;100039.81;;;10.75;53.85
37778;BME280;23615;51.506;7.678;2023-04-06T10:28:01;100044.25;;;11.00;52.97
37778;BME280;23615;51.506;7.678;2023-04-06T10:30:29;100038.72;;;11.13;51.32
37778;BME280;23615;51.506;7.678;2023-04-06T10:32:56;100035.50;;;11.22;52.08
37778;BME280;23615;51.506;7.678;2023-04-06T10:35:21;100039.91;;;11.17;52.08
37778;BME280;23615;51.506;7.678;2023-04-06T10:37:52;100031.34;;;11.27;50.26
37778;BME280;23615;51.506;7.678;2023-04-06T10:40:27;100037.19;;;11.35;52.06
37778;BME280;23615;51.506;7.678;2023-04-06T10:42:55;100031.84;;;11.35;51.02
37778;BME280;23615;51.506;7.678;2023-04-06T10:45:31;100034.66;;;11.52;50.02
37778;BME280;23615;51.506;7.678;2023-04-06T10:47:57;100022.81;;;11.59;49.60
37778;BME280;23615;51.506;7.678;2023-04-06T10:50:22;100034.06;;;11.50;51.46
37778;BME280;23615;51.506;7.678;2023-04-06T10:53:00;100029.22;;;11.70;51.08
37778;BME280;23615;51.506;7.678;2023-04-06T10:55:26;100024.34;;;11.55;51.39
37778;BME280;23615;51.506;7.678;2023-04-06T10:57:53;100025.19;;;11.79;51.07
37778;BME280;23615;51.506;7.678;2023-04-06T11:00:19;100030.31;;;11.81;50.73
37778;BME280;23615;51.506;7.678;2023-04-06T11:02:45;100028.41;;;11.70;53.40
37778;BME280;23615;51.506;7.678;2023-04-06T11:05:11;100020.41;;;11.70;51.16
37778;BME280;23615;51.506;7.678;2023-04-06T11:07:39;100026.47;;;11.77;51.84
37778;BME280;23615;51.506;7.678;2023-04-06T11:10:06;100025.28;;;11.73;52.21
37778;BME280;23615;51.506;7.678;2023-04-06T11:12:31;100019.16;;;11.95;50.16
37778;BME280;23615;51.506;7.678;2023-04-06T11:14:58;100024.88;;;12.11;50.14
37778;BME280;23615;51.506;7.678;2023-04-06T11:17:33;100017.91;;;12.10;51.50
37778;BME280;23615;51.506;7.678;2023-04-06T11:19:59;100011.94;;;11.96;51.38
37778;BME280;23615;51.506;7.678;2023-04-06T11:22:25;100010.19;;;12.13;49.93
37778;BME280;23615;51.506;7.678;2023-04-06T11:24:51;100019.25;;;12.35;48.82
37778;BME280;23615;51.506;7.678;2023-04-06T11:27:17;100011.25;;;12.24;50.41
37778;BME280;23615;51.506;7.678;2023-04-06T11:29:43;100009.50;;;12.18;49.96
37778;BME280;23615;51.506;7.678;2023-04-06T11:32:09;100013.56;;;12.32;50.21
37778;BME280;23615;51.506;7.678;2023-04-06T11:34:39;100014.59;;;12.43;50.34
37778;BME280;23615;51.506;7.678;2023-04-06T11:37:09;100010.88;;;12.32;48.44
37778;BME280;23615;51.506;7.678;2023-04-06T11:40:01;100006.47;;;12.14;50.73
37778;BME280;23615;51.506;7.678;2023-04-06T11:42:28;100006.56;;;12.31;48.92
37778;BME280;23615;51.506;7.678;2023-04-06T11:44:56;100002.25;;;12.42;48.26
37778;BME280;23615;51.506;7.678;2023-04-06T11:47:30;99999.88;;;12.57;49.56
37778;BME280;23615;51.506;7.678;2023-04-06T11:50:04;99994.66;;;12.50;52.53
37778;BME280;23615;51.506;7.678;2023-04-06T11:52:30;99995.78;;;12.66;49.05
37778;BME280;23615;51.506;7.678;2023-04-06T11:54:56;99990.94;;;12.63;48.21
37778;BME280;23615;51.506;7.678;2023-04-06T11:57:22;99994.63;;;12.73;46.63
37778;BME280;23615;51.506;7.678;2023-04-06T11:59:50;99986.91;;;12.77;47.80
37778;BME280;23615;51.506;7.678;2023-04-06T12:02:15;99984.00;;;12.79;47.58
37778;BME280;23615;51.506;7.678;2023-04-06T12:04:41;99989.94;;;12.81;50.64
37778;BME280;23615;51.506;7.678;2023-04-06T12:07:06;99978.75;;;12.84;50.97
37778;BME280;23615;51.506;7.678;2023-04-06T12:09:31;99987.09;;;12.87;50.33
37778;BME280;23615;51.506;7.678;2023-04-06T12:11:57;99990.41;;;13.06;49.14
37778;BME280;23615;51.506;7.678;2023-04-06T12:14:22;99982.91;;;12.91;50.57
37778;BME280;23615;51.506;7.678;2023-04-06T12:16:48;99988.06;;;12.81;52.09
37778;BME280;23615;51.506;7.678;2023-04-06T12:19:13;99980.13;;;12.86;53.66
37778;BME280;23615;51.506;7.678;2023-04-06T12:21:38;99984.91;;;12.84;51.87
37778;BME280;23615;51.506;7.678;2023-04-06T12:24:04;99980.56;;;13.11;49.43
37778;BME280;23615;51.506;7.678;2023-04-06T12:26:31;99976.34;;;13.27;50.04
37778;BME280;23615;51.506;7.678;2023-04-06T12:28:57;99977.16;;;13.44;48.86
37778;BME280;23615;51.506;7.678;2023-04-06T12:31:28;99971.00;;;13.27;49.66
37778;BME280;23615;51.506;7.678;2023-04-06T12:33:53;99977.72;;;13.30;51.34
37778;BME280;23615;51.506;7.678;2023-04-06T12:36:20;99975.72;;;13.37;49.99
37778;BME280;23615;51.506;7.678;2023-04-06T12:38:49;99971.00;;;13.44;49.95
37778;BME280;23615;51.506;7.678;2023-04-06T12:41:16;99971.97;;;13.38;49.55
37778;BME280;23615;51.506;7.678;2023-04-06T12:43:42;99972.19;;;13.20;52.45
37778;BME280;23615;51.506;7.678;2023-04-06T12:46:08;99976.03;;;13.12;52.10
37778;BME280;23615;51.506;7.678;2023-04-06T12:48:33;99972.19;;;13.20;52.08
37778;BME280;23615;51.506;7.678;2023-04-06T12:51:01;99962.22;;;13.32;49.98
37778;BME280;23615;51.506;7.678;2023-04-06T12:53:27;99961.91;;;13.28;50.55
37778;BME280;23615;51.506;7.678;2023-04-06T12:55:56;99967.03;;;13.46;50.80
37778;BME280;23615;51.506;7.678;2023-04-06T12:58:22;99959.06;;;13.35;52.53